Terminal Aerodrome Forecast
Issued by NWS

Home | Current Version | Previous Version | Text Only | Print | Product List | Glossary On
Versions: 1 2 3 4 5 6 7 8 9 10 11 12 13 14
000
FTAK31 PAJN 280526
TAFAKT
TAF
PAKT 280526Z 2806/2906 12012KT 6SM -RA BR SCT005 BKN015 OVC025
      WS020/20025KT
     FM281100 14012G20KT 4SM RA BR BKN010 OVC030 WS020/18030KT
     FM281400 14014G25KT 3SM RA BR BKN010 OVC015 WS020/17040KT
     FM281700 14020G34KT 3SM RA BR BKN010 OVC015 WS020/16045KT
     FM290000 15015G22KT 5SM -RA BR BKN015 OVC025 WS020/14045KT
      AMD LTD TO CLD VIS AND WIND 2806/2815=

USA.gov is the U.S. government's official web portal to all federal, state and local government web resources and services.